Accueil
METAR-TAF:

METAR-TAF

Aéroports :

Aéroport de Karlsruhe-Baden-Baden

Baden-Baden, Allemagne

latitude: 48-46-43N, longitude: 008-04-47E, altitude: 124 m

Observation

Le bulletin a été fait il y a 23 minutes, à 03:20 UTC
Vent 5 kt de nord/nord-est
Température 10°C
Humidité 87%
Pression 1024 hPa
Visibilité 10 km ou plus

METAR: EDSB 120320Z AUTO 03005KT 9999 // NCD 10/08 Q1024

Heure: 05:43 (03:43 UTC)

Prévision

Le bulletin a été fait il y a 43 minutes, à 03:00 UTC
Prévision valable du 12 à 04 UTC au 12 à 24 UTC
Vent 5 kt de nord
Visibilité 10 km ou plus
pas de nuages en-dessous de 1500 mètres et pas de cumulonimbus.
Evoluant progressivement
du 12 à 07 UTC au 12 à 09 UTC
Vent 10 kt de nord
Evoluant progressivement
du 12 à 17 UTC au 12 à 19 UTC
Vent 5 kt de nord/nord-est

TAF: EDSB 120300Z 1204/1224 01005KT CAVOK BECMG 1207/1209 01010KT BECMG 1217/1219 02005KT

Observations et prévisions météorologiques de plus de 4000 aéroports (messages METAR et TAF).

Les stations disponibles sont représentées par des disques jaunes et rouges sur la carte.

Passer la souris dessus pour voir le nom de la station.

Cliquer dessus pour voir les observations et prévisions météorologiques.

Pour changer de carte: cliquez sur les boutons verts avec une croix noire pour zoomer, sur le bouton vert avec un tiret pour effectuer un zoom arrière, ou sur les flèches vertes pour les cartes adjacentes.


METAR-TAF: